Albany (ALB/KALB)

Map

Destinations

Information

Location
Albany, NY
Local Time
06:32 / 6:32 am
GMT Time
10:32 / 10:32 am
Gates
A4
No FAA reported delays
METAR KALB 210951Z 00000KT 10SM FEW040 18/16 A2989 RMK AO2 SLP121 T01780161
TAF KALB 210523Z 2106/2206 00000KT P6SM SCT040 FM211300 29005KT P6SM SCT250 FM211700 29009KT P6SM FEW250 FM220400 28005KT P6SM SCT250